« Back
NWS Peachtree City, Ga » Text Product » AHN Terminal Aerodrome Forecast


Printer-friendly Version
Current Version              Previous Versions:   1  2  3  4  5  6  7  8  9  

Terminal Aerodrome Forecast

377
FTUS42 KFFC 290533
TAFAHN
TAF
KAHN 290533Z 2906/3006 00000KT P6SM SKC
     FM291500 19005KT P6SM SKC
     FM291900 20006KT P6SM FEW040
     FM300000 00000KT P6SM SKC=

USA.gov is the U.S. government's official web portal to all federal, state and local government web resources and services.